sensor_id;sensor_type;location;lat;lon;timestamp;temperature;humidity
22706;DHT22;11520;51.198;4.468;2022-09-29T00:00:31;8.90;99.90
22706;DHT22;11520;51.198;4.468;2022-09-29T00:02:57;8.90;99.90
22706;DHT22;11520;51.198;4.468;2022-09-29T00:05:23;8.90;99.90
22706;DHT22;11520;51.198;4.468;2022-09-29T00:07:48;8.90;99.90
22706;DHT22;11520;51.198;4.468;2022-09-29T00:10:14;8.90;99.90
22706;DHT22;11520;51.198;4.468;2022-09-29T00:12:40;8.80;99.90
22706;DHT22;11520;51.198;4.468;2022-09-29T00:15:06;8.80;99.90
22706;DHT22;11520;51.198;4.468;2022-09-29T00:17:32;8.80;99.90
22706;DHT22;11520;51.198;4.468;2022-09-29T00:19:58;8.80;99.90
22706;DHT22;11520;51.198;4.468;2022-09-29T00:22:24;8.80;99.90
22706;DHT22;11520;51.198;4.468;2022-09-29T00:24:50;8.70;99.90
22706;DHT22;11520;51.198;4.468;2022-09-29T00:27:17;8.80;99.90
22706;DHT22;11520;51.198;4.468;2022-09-29T00:29:43;8.70;99.90
22706;DHT22;11520;51.198;4.468;2022-09-29T00:32:10;8.70;99.90
22706;DHT22;11520;51.198;4.468;2022-09-29T00:34:35;8.60;99.90
22706;DHT22;11520;51.198;4.468;2022-09-29T00:37:01;8.60;99.90
22706;DHT22;11520;51.198;4.468;2022-09-29T00:39:27;8.60;99.90
22706;DHT22;11520;51.198;4.468;2022-09-29T00:41:52;8.50;99.90
22706;DHT22;11520;51.198;4.468;2022-09-29T00:46:54;8.50;99.90
22706;DHT22;11520;51.198;4.468;2022-09-29T00:52:38;8.40;99.90
22706;DHT22;11520;51.198;4.468;2022-09-29T00:55:08;8.40;99.90
22706;DHT22;11520;51.198;4.468;2022-09-29T00:57:45;8.40;99.90
22706;DHT22;11520;51.198;4.468;2022-09-29T01:00:15;8.40;99.90
22706;DHT22;11520;51.198;4.468;2022-09-29T01:02:45;8.30;99.90
22706;DHT22;11520;51.198;4.468;2022-09-29T01:05:17;8.30;99.90
22706;DHT22;11520;51.198;4.468;2022-09-29T01:07:46;8.30;99.90
22706;DHT22;11520;51.198;4.468;2022-09-29T01:10:15;8.30;99.90
22706;DHT22;11520;51.198;4.468;2022-09-29T01:12:44;8.30;99.90
22706;DHT22;11520;51.198;4.468;2022-09-29T01:15:10;8.30;99.90
22706;DHT22;11520;51.198;4.468;2022-09-29T01:17:37;8.30;99.90
22706;DHT22;11520;51.198;4.468;2022-09-29T01:20:11;8.30;99.90
22706;DHT22;11520;51.198;4.468;2022-09-29T01:22:50;8.40;99.90
22706;DHT22;11520;51.198;4.468;2022-09-29T01:25:47;8.30;99.90
22706;DHT22;11520;51.198;4.468;2022-09-29T01:36:53;8.10;99.90
22706;DHT22;11520;51.198;4.468;2022-09-29T01:39:40;8.10;99.90
22706;DHT22;11520;51.198;4.468;2022-09-29T01:42:14;8.10;99.90
22706;DHT22;11520;51.198;4.468;2022-09-29T01:47:13;8.00;99.90
22706;DHT22;11520;51.198;4.468;2022-09-29T01:49:49;8.10;99.90
22706;DHT22;11520;51.198;4.468;2022-09-29T01:52:22;8.10;99.90
22706;DHT22;11520;51.198;4.468;2022-09-29T01:55:15;8.10;99.90
22706;DHT22;11520;51.198;4.468;2022-09-29T01:58:04;8.10;99.90
22706;DHT22;11520;51.198;4.468;2022-09-29T02:00:35;8.10;99.90
22706;DHT22;11520;51.198;4.468;2022-09-29T02:05:37;8.00;99.90
22706;DHT22;11520;51.198;4.468;2022-09-29T02:08:17;8.00;99.90
22706;DHT22;11520;51.198;4.468;2022-09-29T02:10:50;8.00;99.90
22706;DHT22;11520;51.198;4.468;2022-09-29T02:13:19;7.90;99.90
22706;DHT22;11520;51.198;4.468;2022-09-29T02:15:47;7.90;99.90
22706;DHT22;11520;51.198;4.468;2022-09-29T02:18:21;7.90;99.90
22706;DHT22;11520;51.198;4.468;2022-09-29T02:20:53;7.90;99.90
22706;DHT22;11520;51.198;4.468;2022-09-29T02:23:20;7.90;99.90
22706;DHT22;11520;51.198;4.468;2022-09-29T02:25:46;7.80;99.90
22706;DHT22;11520;51.198;4.468;2022-09-29T02:28:16;7.80;99.90
22706;DHT22;11520;51.198;4.468;2022-09-29T02:30:45;7.70;99.90
22706;DHT22;11520;51.198;4.468;2022-09-29T02:33:22;7.70;99.90
22706;DHT22;11520;51.198;4.468;2022-09-29T02:39:04;7.70;99.90
22706;DHT22;11520;51.198;4.468;2022-09-29T02:42:06;7.70;99.90
22706;DHT22;11520;51.198;4.468;2022-09-29T02:47:40;7.70;99.90
22706;DHT22;11520;51.198;4.468;2022-09-29T02:55:42;7.70;99.90
22706;DHT22;11520;51.198;4.468;2022-09-29T02:58:24;7.70;99.90
22706;DHT22;11520;51.198;4.468;2022-09-29T03:00:52;7.60;99.90
22706;DHT22;11520;51.198;4.468;2022-09-29T03:03:19;7.60;99.90
22706;DHT22;11520;51.198;4.468;2022-09-29T03:05:46;7.60;99.90
22706;DHT22;11520;51.198;4.468;2022-09-29T03:08:13;7.60;99.90
22706;DHT22;11520;51.198;4.468;2022-09-29T03:10:38;7.70;99.90
22706;DHT22;11520;51.198;4.468;2022-09-29T03:13:04;7.70;99.90
22706;DHT22;11520;51.198;4.468;2022-09-29T03:15:30;7.60;99.90
22706;DHT22;11520;51.198;4.468;2022-09-29T03:17:56;7.60;99.90
22706;DHT22;11520;51.198;4.468;2022-09-29T03:20:21;7.60;99.90
22706;DHT22;11520;51.198;4.468;2022-09-29T03:22:47;7.60;99.90
22706;DHT22;11520;51.198;4.468;2022-09-29T03:25:16;7.60;99.90
22706;DHT22;11520;51.198;4.468;2022-09-29T03:27:43;7.60;99.90
22706;DHT22;11520;51.198;4.468;2022-09-29T03:30:11;7.60;99.90
22706;DHT22;11520;51.198;4.468;2022-09-29T03:32:37;7.60;99.90
22706;DHT22;11520;51.198;4.468;2022-09-29T03:35:03;7.60;99.90
22706;DHT22;11520;51.198;4.468;2022-09-29T03:37:28;7.60;99.90
22706;DHT22;11520;51.198;4.468;2022-09-29T03:39:54;7.60;99.90
22706;DHT22;11520;51.198;4.468;2022-09-29T03:42:20;7.50;99.90
22706;DHT22;11520;51.198;4.468;2022-09-29T03:44:48;7.50;99.90
22706;DHT22;11520;51.198;4.468;2022-09-29T03:47:14;7.50;99.90
22706;DHT22;11520;51.198;4.468;2022-09-29T03:49:39;7.50;99.90
22706;DHT22;11520;51.198;4.468;2022-09-29T03:52:05;7.60;99.90
22706;DHT22;11520;51.198;4.468;2022-09-29T03:54:33;7.50;99.90
22706;DHT22;11520;51.198;4.468;2022-09-29T03:56:59;7.50;99.90
22706;DHT22;11520;51.198;4.468;2022-09-29T03:59:24;7.50;99.90
22706;DHT22;11520;51.198;4.468;2022-09-29T04:01:50;7.50;99.90
22706;DHT22;11520;51.198;4.468;2022-09-29T04:04:16;7.50;99.90
22706;DHT22;11520;51.198;4.468;2022-09-29T04:06:41;7.50;99.90
22706;DHT22;11520;51.198;4.468;2022-09-29T04:09:08;7.50;99.90
22706;DHT22;11520;51.198;4.468;2022-09-29T04:11:34;7.50;99.90
22706;DHT22;11520;51.198;4.468;2022-09-29T04:13:59;7.50;99.90
22706;DHT22;11520;51.198;4.468;2022-09-29T04:16:25;7.40;99.90
22706;DHT22;11520;51.198;4.468;2022-09-29T04:18:50;7.40;99.90
22706;DHT22;11520;51.198;4.468;2022-09-29T04:21:17;7.40;99.90
22706;DHT22;11520;51.198;4.468;2022-09-29T04:23:43;7.40;99.90
22706;DHT22;11520;51.198;4.468;2022-09-29T04:26:08;7.40;99.90
22706;DHT22;11520;51.198;4.468;2022-09-29T04:28:35;7.40;99.90
22706;DHT22;11520;51.198;4.468;2022-09-29T04:31:01;7.40;99.90
22706;DHT22;11520;51.198;4.468;2022-09-29T04:33:28;7.40;99.90
22706;DHT22;11520;51.198;4.468;2022-09-29T04:35:56;7.40;99.90
22706;DHT22;11520;51.198;4.468;2022-09-29T04:38:21;7.40;99.90
22706;DHT22;11520;51.198;4.468;2022-09-29T04:40:47;7.40;99.90
22706;DHT22;11520;51.198;4.468;2022-09-29T04:43:14;7.40;99.90
22706;DHT22;11520;51.198;4.468;2022-09-29T04:45:40;7.40;99.90
22706;DHT22;11520;51.198;4.468;2022-09-29T04:48:06;7.40;99.90
22706;DHT22;11520;51.198;4.468;2022-09-29T04:50:32;7.50;99.90
22706;DHT22;11520;51.198;4.468;2022-09-29T04:52:58;7.40;99.90
22706;DHT22;11520;51.198;4.468;2022-09-29T04:55:25;7.50;99.90
22706;DHT22;11520;51.198;4.468;2022-09-29T04:57:51;7.50;99.90
22706;DHT22;11520;51.198;4.468;2022-09-29T05:00:17;7.40;99.90
22706;DHT22;11520;51.198;4.468;2022-09-29T05:02:43;7.30;99.90
22706;DHT22;11520;51.198;4.468;2022-09-29T05:05:09;7.30;99.90
22706;DHT22;11520;51.198;4.468;2022-09-29T05:07:38;7.20;99.90
22706;DHT22;11520;51.198;4.468;2022-09-29T05:10:08;7.20;99.90
22706;DHT22;11520;51.198;4.468;2022-09-29T05:12:33;7.30;99.90
22706;DHT22;11520;51.198;4.468;2022-09-29T05:14:59;7.30;99.90
22706;DHT22;11520;51.198;4.468;2022-09-29T05:17:25;7.30;99.90
22706;DHT22;11520;51.198;4.468;2022-09-29T05:19:51;7.30;99.90
22706;DHT22;11520;51.198;4.468;2022-09-29T05:22:17;7.40;99.90
22706;DHT22;11520;51.198;4.468;2022-09-29T05:24:49;7.30;99.90
22706;DHT22;11520;51.198;4.468;2022-09-29T05:27:15;7.30;99.90
22706;DHT22;11520;51.198;4.468;2022-09-29T05:29:41;7.30;99.90
22706;DHT22;11520;51.198;4.468;2022-09-29T05:32:06;7.30;99.90
22706;DHT22;11520;51.198;4.468;2022-09-29T05:34:32;7.30;99.90
22706;DHT22;11520;51.198;4.468;2022-09-29T05:36:57;7.30;99.90
22706;DHT22;11520;51.198;4.468;2022-09-29T05:39:23;7.30;99.90
22706;DHT22;11520;51.198;4.468;2022-09-29T05:41:49;7.30;99.90
22706;DHT22;11520;51.198;4.468;2022-09-29T05:44:16;7.40;99.90
22706;DHT22;11520;51.198;4.468;2022-09-29T05:46:42;7.40;99.90
22706;DHT22;11520;51.198;4.468;2022-09-29T05:49:08;7.40;99.90
22706;DHT22;11520;51.198;4.468;2022-09-29T05:51:34;7.40;99.90
22706;DHT22;11520;51.198;4.468;2022-09-29T05:54:00;7.50;99.90
22706;DHT22;11520;51.198;4.468;2022-09-29T05:56:26;7.50;99.90
22706;DHT22;11520;51.198;4.468;2022-09-29T05:58:52;7.50;99.90
22706;DHT22;11520;51.198;4.468;2022-09-29T06:01:20;7.50;99.90
22706;DHT22;11520;51.198;4.468;2022-09-29T06:03:48;7.50;99.90
22706;DHT22;11520;51.198;4.468;2022-09-29T06:06:19;7.50;99.90
22706;DHT22;11520;51.198;4.468;2022-09-29T06:08:45;7.60;99.90
22706;DHT22;11520;51.198;4.468;2022-09-29T06:11:23;7.60;99.90
22706;DHT22;11520;51.198;4.468;2022-09-29T06:13:51;7.70;99.90
22706;DHT22;11520;51.198;4.468;2022-09-29T06:16:19;7.70;99.90
22706;DHT22;11520;51.198;4.468;2022-09-29T06:18:46;7.60;99.90
22706;DHT22;11520;51.198;4.468;2022-09-29T06:21:17;7.70;99.90
22706;DHT22;11520;51.198;4.468;2022-09-29T06:23:43;7.80;99.90
22706;DHT22;11520;51.198;4.468;2022-09-29T06:26:11;7.90;99.90
22706;DHT22;11520;51.198;4.468;2022-09-29T06:28:37;7.90;99.90
22706;DHT22;11520;51.198;4.468;2022-09-29T06:31:07;7.90;99.90
22706;DHT22;11520;51.198;4.468;2022-09-29T06:33:34;8.00;99.90
22706;DHT22;11520;51.198;4.468;2022-09-29T06:36:05;8.00;99.90
22706;DHT22;11520;51.198;4.468;2022-09-29T06:38:51;8.00;99.90
22706;DHT22;11520;51.198;4.468;2022-09-29T06:41:16;8.00;99.90
22706;DHT22;11520;51.198;4.468;2022-09-29T06:43:42;8.00;99.90
22706;DHT22;11520;51.198;4.468;2022-09-29T06:46:07;8.00;99.90
22706;DHT22;11520;51.198;4.468;2022-09-29T06:48:33;8.20;99.90
22706;DHT22;11520;51.198;4.468;2022-09-29T06:50:58;8.30;99.90
22706;DHT22;11520;51.198;4.468;2022-09-29T06:53:25;8.40;99.90
22706;DHT22;11520;51.198;4.468;2022-09-29T06:55:55;8.50;99.90
22706;DHT22;11520;51.198;4.468;2022-09-29T06:58:22;8.60;99.90
22706;DHT22;11520;51.198;4.468;2022-09-29T07:00:48;8.60;99.90
22706;DHT22;11520;51.198;4.468;2022-09-29T07:03:13;8.70;99.90
22706;DHT22;11520;51.198;4.468;2022-09-29T07:05:40;8.80;99.90
22706;DHT22;11520;51.198;4.468;2022-09-29T07:08:06;8.90;99.90
22706;DHT22;11520;51.198;4.468;2022-09-29T07:10:31;9.10;99.90
22706;DHT22;11520;51.198;4.468;2022-09-29T07:12:57;9.30;99.90
22706;DHT22;11520;51.198;4.468;2022-09-29T07:15:23;9.50;99.90
22706;DHT22;11520;51.198;4.468;2022-09-29T07:17:56;9.60;99.90
22706;DHT22;11520;51.198;4.468;2022-09-29T07:20:25;9.90;99.90
22706;DHT22;11520;51.198;4.468;2022-09-29T07:22:52;10.10;99.90
22706;DHT22;11520;51.198;4.468;2022-09-29T07:25:18;10.30;99.90
22706;DHT22;11520;51.198;4.468;2022-09-29T07:27:45;10.90;99.90
22706;DHT22;11520;51.198;4.468;2022-09-29T07:30:11;12.10;99.90
22706;DHT22;11520;51.198;4.468;2022-09-29T07:32:37;13.50;99.90
22706;DHT22;11520;51.198;4.468;2022-09-29T07:35:04;14.70;99.90
22706;DHT22;11520;51.198;4.468;2022-09-29T07:37:30;16.20;99.90
22706;DHT22;11520;51.198;4.468;2022-09-29T07:39:56;17.50;99.90
22706;DHT22;11520;51.198;4.468;2022-09-29T07:42:21;18.40;99.90
22706;DHT22;11520;51.198;4.468;2022-09-29T07:44:48;19.40;99.90
22706;DHT22;11520;51.198;4.468;2022-09-29T07:47:14;20.30;99.90
22706;DHT22;11520;51.198;4.468;2022-09-29T07:49:41;21.10;99.90
22706;DHT22;11520;51.198;4.468;2022-09-29T07:52:07;21.90;99.90
22706;DHT22;11520;51.198;4.468;2022-09-29T07:54:33;22.40;99.50
22706;DHT22;11520;51.198;4.468;2022-09-29T07:57:00;22.60;96.10
22706;DHT22;11520;51.198;4.468;2022-09-29T07:59:28;23.10;95.50
22706;DHT22;11520;51.198;4.468;2022-09-29T08:01:54;23.50;93.20
22706;DHT22;11520;51.198;4.468;2022-09-29T08:04:20;23.60;92.10
22706;DHT22;11520;51.198;4.468;2022-09-29T08:06:46;23.80;91.40
22706;DHT22;11520;51.198;4.468;2022-09-29T08:09:12;24.30;90.90
22706;DHT22;11520;51.198;4.468;2022-09-29T08:11:40;24.70;88.30
22706;DHT22;11520;51.198;4.468;2022-09-29T08:14:08;25.30;85.60
22706;DHT22;11520;51.198;4.468;2022-09-29T08:16:35;25.80;82.10
22706;DHT22;11520;51.198;4.468;2022-09-29T08:19:02;26.30;79.50
22706;DHT22;11520;51.198;4.468;2022-09-29T08:21:29;26.80;76.00
22706;DHT22;11520;51.198;4.468;2022-09-29T08:23:56;27.30;73.50
22706;DHT22;11520;51.198;4.468;2022-09-29T08:26:22;27.30;71.50
22706;DHT22;11520;51.198;4.468;2022-09-29T08:28:48;27.70;69.70
22706;DHT22;11520;51.198;4.468;2022-09-29T08:31:15;28.20;66.80
22706;DHT22;11520;51.198;4.468;2022-09-29T08:33:46;28.40;65.00
22706;DHT22;11520;51.198;4.468;2022-09-29T08:36:14;28.90;63.00
22706;DHT22;11520;51.198;4.468;2022-09-29T08:38:45;29.40;61.20
22706;DHT22;11520;51.198;4.468;2022-09-29T08:44:35;28.10;60.60
22706;DHT22;11520;51.198;4.468;2022-09-29T08:47:19;28.20;62.80
22706;DHT22;11520;51.198;4.468;2022-09-29T08:49:58;28.90;60.70
22706;DHT22;11520;51.198;4.468;2022-09-29T08:52:28;28.10;60.40
22706;DHT22;11520;51.198;4.468;2022-09-29T08:57:41;27.80;63.70
22706;DHT22;11520;51.198;4.468;2022-09-29T09:00:12;28.80;59.70
22706;DHT22;11520;51.198;4.468;2022-09-29T09:22:19;31.40;50.50
22706;DHT22;11520;51.198;4.468;2022-09-29T09:25:00;31.60;51.10
22706;DHT22;11520;51.198;4.468;2022-09-29T09:27:32;32.30;50.30
22706;DHT22;11520;51.198;4.468;2022-09-29T09:30:12;32.40;49.20
22706;DHT22;11520;51.198;4.468;2022-09-29T09:32:53;32.60;48.80
22706;DHT22;11520;51.198;4.468;2022-09-29T09:36:15;32.90;48.20
22706;DHT22;11520;51.198;4.468;2022-09-29T09:38:22;33.70;46.90
22706;DHT22;11520;51.198;4.468;2022-09-29T09:40:54;34.40;46.00
22706;DHT22;11520;51.198;4.468;2022-09-29T09:43:28;33.60;45.70
22706;DHT22;11520;51.198;4.468;2022-09-29T09:46:11;34.10;45.40
22706;DHT22;11520;51.198;4.468;2022-09-29T09:48:42;34.40;44.00
22706;DHT22;11520;51.198;4.468;2022-09-29T09:51:29;34.80;43.20
22706;DHT22;11520;51.198;4.468;2022-09-29T09:53:59;35.10;42.10
22706;DHT22;11520;51.198;4.468;2022-09-29T09:56:45;34.40;41.90
22706;DHT22;11520;51.198;4.468;2022-09-29T10:01:55;35.20;42.00
22706;DHT22;11520;51.198;4.468;2022-09-29T10:04:22;35.40;41.80
22706;DHT22;11520;51.198;4.468;2022-09-29T10:06:51;35.60;41.20
22706;DHT22;11520;51.198;4.468;2022-09-29T10:09:18;35.70;41.00
22706;DHT22;11520;51.198;4.468;2022-09-29T10:11:44;35.40;39.70
22706;DHT22;11520;51.198;4.468;2022-09-29T10:14:27;35.00;40.00
22706;DHT22;11520;51.198;4.468;2022-09-29T10:17:06;34.80;41.40
22706;DHT22;11520;51.198;4.468;2022-09-29T10:19:58;34.80;41.20
22706;DHT22;11520;51.198;4.468;2022-09-29T10:22:25;33.80;39.90
22706;DHT22;11520;51.198;4.468;2022-09-29T10:25:15;31.60;44.40
22706;DHT22;11520;51.198;4.468;2022-09-29T10:27:53;31.90;43.30
22706;DHT22;11520;51.198;4.468;2022-09-29T10:30:32;31.60;44.90
22706;DHT22;11520;51.198;4.468;2022-09-29T10:33:01;31.60;44.50
22706;DHT22;11520;51.198;4.468;2022-09-29T10:35:33;32.10;44.60
22706;DHT22;11520;51.198;4.468;2022-09-29T10:41:05;33.70;41.90
22706;DHT22;11520;51.198;4.468;2022-09-29T10:43:38;33.80;42.10
22706;DHT22;11520;51.198;4.468;2022-09-29T10:46:05;33.60;40.30
22706;DHT22;11520;51.198;4.468;2022-09-29T10:49:17;32.60;41.80
22706;DHT22;11520;51.198;4.468;2022-09-29T10:52:05;31.00;42.60
22706;DHT22;11520;51.198;4.468;2022-09-29T10:54:36;29.60;45.60
22706;DHT22;11520;51.198;4.468;2022-09-29T10:57:13;28.30;47.40
22706;DHT22;11520;51.198;4.468;2022-09-29T10:59:47;27.20;49.80
22706;DHT22;11520;51.198;4.468;2022-09-29T11:02:38;26.40;52.30
22706;DHT22;11520;51.198;4.468;2022-09-29T11:05:16;25.70;55.30
22706;DHT22;11520;51.198;4.468;2022-09-29T11:07:44;25.10;57.30
22706;DHT22;11520;51.198;4.468;2022-09-29T11:10:32;24.60;59.90
22706;DHT22;11520;51.198;4.468;2022-09-29T11:12:58;24.10;62.30
22706;DHT22;11520;51.198;4.468;2022-09-29T11:15:39;23.60;64.20
22706;DHT22;11520;51.198;4.468;2022-09-29T11:18:18;23.20;65.20
22706;DHT22;11520;51.198;4.468;2022-09-29T11:20:46;22.80;68.50
22706;DHT22;11520;51.198;4.468;2022-09-29T11:24:10;22.30;69.20
22706;DHT22;11520;51.198;4.468;2022-09-29T11:29:20;21.70;71.20
22706;DHT22;11520;51.198;4.468;2022-09-29T11:32:02;21.50;72.50
22706;DHT22;11520;51.198;4.468;2022-09-29T11:34:54;21.30;74.10
22706;DHT22;11520;51.198;4.468;2022-09-29T11:45:41;20.30;81.30
22706;DHT22;11520;51.198;4.468;2022-09-29T11:48:28;20.20;82.50
22706;DHT22;11520;51.198;4.468;2022-09-29T11:51:15;19.50;85.50
22706;DHT22;11520;51.198;4.468;2022-09-29T11:54:29;19.70;87.40
22706;DHT22;11520;51.198;4.468;2022-09-29T11:57:22;20.20;85.90
22706;DHT22;11520;51.198;4.468;2022-09-29T12:13:50;20.20;86.20
22706;DHT22;11520;51.198;4.468;2022-09-29T12:16:24;20.40;87.10
22706;DHT22;11520;51.198;4.468;2022-09-29T12:18:58;20.00;88.50
22706;DHT22;11520;51.198;4.468;2022-09-29T12:22:03;20.00;87.90
22706;DHT22;11520;51.198;4.468;2022-09-29T12:24:39;19.80;89.10
22706;DHT22;11520;51.198;4.468;2022-09-29T12:27:21;19.10;90.30
22706;DHT22;11520;51.198;4.468;2022-09-29T12:30:25;18.80;91.60
22706;DHT22;11520;51.198;4.468;2022-09-29T12:32:53;18.70;92.30
22706;DHT22;11520;51.198;4.468;2022-09-29T12:35:40;18.80;92.90
22706;DHT22;11520;51.198;4.468;2022-09-29T12:38:27;19.20;92.40
22706;DHT22;11520;51.198;4.468;2022-09-29T12:41:18;19.20;92.80
22706;DHT22;11520;51.198;4.468;2022-09-29T12:46:43;18.90;92.60
22706;DHT22;11520;51.198;4.468;2022-09-29T12:49:34;19.20;92.10
22706;DHT22;11520;51.198;4.468;2022-09-29T12:52:03;19.00;92.50
22706;DHT22;11520;51.198;4.468;2022-09-29T12:54:39;19.10;92.60
22706;DHT22;11520;51.198;4.468;2022-09-29T12:57:16;19.20;92.60
22706;DHT22;11520;51.198;4.468;2022-09-29T12:59:55;19.00;92.60
22706;DHT22;11520;51.198;4.468;2022-09-29T13:14:06;19.10;92.10
22706;DHT22;11520;51.198;4.468;2022-09-29T13:16:10;19.00;92.90
22706;DHT22;11520;51.198;4.468;2022-09-29T13:24:25;18.70;94.10
22706;DHT22;11520;51.198;4.468;2022-09-29T13:27:21;18.60;95.20
22706;DHT22;11520;51.198;4.468;2022-09-29T13:30:07;18.50;94.00
22706;DHT22;11520;51.198;4.468;2022-09-29T13:35:37;18.70;95.40
22706;DHT22;11520;51.198;4.468;2022-09-29T13:38:06;18.60;93.60
22706;DHT22;11520;51.198;4.468;2022-09-29T13:40:32;18.20;95.80
22706;DHT22;11520;51.198;4.468;2022-09-29T13:43:00;18.30;96.00
22706;DHT22;11520;51.198;4.468;2022-09-29T13:48:00;18.50;95.70
22706;DHT22;11520;51.198;4.468;2022-09-29T13:50:47;18.60;95.90
22706;DHT22;11520;51.198;4.468;2022-09-29T13:53:34;18.80;95.30
22706;DHT22;11520;51.198;4.468;2022-09-29T14:01:35;18.60;95.00
22706;DHT22;11520;51.198;4.468;2022-09-29T14:04:42;18.50;96.80
22706;DHT22;11520;51.198;4.468;2022-09-29T14:07:12;18.70;95.20
22706;DHT22;11520;51.198;4.468;2022-09-29T14:09:42;18.80;94.40
22706;DHT22;11520;51.198;4.468;2022-09-29T14:12:25;18.90;94.40
22706;DHT22;11520;51.198;4.468;2022-09-29T14:14:55;19.10;94.20
22706;DHT22;11520;51.198;4.468;2022-09-29T14:17:32;19.10;94.40
22706;DHT22;11520;51.198;4.468;2022-09-29T14:20:20;19.20;93.70
22706;DHT22;11520;51.198;4.468;2022-09-29T14:22:53;19.30;94.00
22706;DHT22;11520;51.198;4.468;2022-09-29T14:25:28;19.20;93.60
22706;DHT22;11520;51.198;4.468;2022-09-29T14:28:31;19.50;93.10
22706;DHT22;11520;51.198;4.468;2022-09-29T14:30:59;19.60;91.90
22706;DHT22;11520;51.198;4.468;2022-09-29T14:33:45;19.90;92.00
22706;DHT22;11520;51.198;4.468;2022-09-29T14:36:17;19.90;91.70
22706;DHT22;11520;51.198;4.468;2022-09-29T14:38:46;19.80;92.60
22706;DHT22;11520;51.198;4.468;2022-09-29T14:41:28;19.70;92.50
22706;DHT22;11520;51.198;4.468;2022-09-29T14:44:05;19.70;92.80
22706;DHT22;11520;51.198;4.468;2022-09-29T14:52:40;19.50;93.30
22706;DHT22;11520;51.198;4.468;2022-09-29T15:00:17;19.70;93.40
22706;DHT22;11520;51.198;4.468;2022-09-29T15:02:50;19.80;93.20
22706;DHT22;11520;51.198;4.468;2022-09-29T15:07:48;19.60;93.50
22706;DHT22;11520;51.198;4.468;2022-09-29T15:10:41;19.70;93.40
22706;DHT22;11520;51.198;4.468;2022-09-29T15:15:48;19.90;92.40
22706;DHT22;11520;51.198;4.468;2022-09-29T15:18:37;20.00;92.50
22706;DHT22;11520;51.198;4.468;2022-09-29T15:21:22;20.00;92.70
22706;DHT22;11520;51.198;4.468;2022-09-29T15:24:30;20.00;92.80
22706;DHT22;11520;51.198;4.468;2022-09-29T15:27:02;20.10;92.70
22706;DHT22;11520;51.198;4.468;2022-09-29T15:29:29;19.50;92.90
22706;DHT22;11520;51.198;4.468;2022-09-29T15:31:55;19.60;93.40
22706;DHT22;11520;51.198;4.468;2022-09-29T15:34:23;19.70;93.50
22706;DHT22;11520;51.198;4.468;2022-09-29T15:36:51;19.50;93.40
22706;DHT22;11520;51.198;4.468;2022-09-29T15:39:43;19.30;94.20
22706;DHT22;11520;51.198;4.468;2022-09-29T15:42:13;19.40;94.50
22706;DHT22;11520;51.198;4.468;2022-09-29T15:44:46;19.40;94.80
22706;DHT22;11520;51.198;4.468;2022-09-29T15:47:21;19.40;94.60
22706;DHT22;11520;51.198;4.468;2022-09-29T15:49:51;19.20;94.50
22706;DHT22;11520;51.198;4.468;2022-09-29T15:52:18;19.10;94.70
22706;DHT22;11520;51.198;4.468;2022-09-29T15:54:54;19.00;95.00
22706;DHT22;11520;51.198;4.468;2022-09-29T16:05:17;18.50;96.70
22706;DHT22;11520;51.198;4.468;2022-09-29T16:08:00;18.50;97.10
22706;DHT22;11520;51.198;4.468;2022-09-29T16:10:32;18.30;98.50
22706;DHT22;11520;51.198;4.468;2022-09-29T16:13:00;17.60;99.90
22706;DHT22;11520;51.198;4.468;2022-09-29T16:15:34;16.70;99.90
22706;DHT22;11520;51.198;4.468;2022-09-29T16:18:19;16.50;99.90
22706;DHT22;11520;51.198;4.468;2022-09-29T16:20:49;16.40;99.90
22706;DHT22;11520;51.198;4.468;2022-09-29T16:31:28;16.60;99.90
22706;DHT22;11520;51.198;4.468;2022-09-29T16:33:57;16.50;99.90
22706;DHT22;11520;51.198;4.468;2022-09-29T16:36:34;16.40;99.90
22706;DHT22;11520;51.198;4.468;2022-09-29T16:39:04;16.40;99.90
22706;DHT22;11520;51.198;4.468;2022-09-29T16:41:32;16.40;99.90
22706;DHT22;11520;51.198;4.468;2022-09-29T16:46:47;16.30;99.90
22706;DHT22;11520;51.198;4.468;2022-09-29T16:49:28;16.20;99.90
22706;DHT22;11520;51.198;4.468;2022-09-29T16:52:00;16.20;99.90
22706;DHT22;11520;51.198;4.468;2022-09-29T16:54:31;16.10;99.90
22706;DHT22;11520;51.198;4.468;2022-09-29T16:57:30;16.00;99.90
22706;DHT22;11520;51.198;4.468;2022-09-29T17:00:16;16.00;99.90
22706;DHT22;11520;51.198;4.468;2022-09-29T17:02:43;15.90;99.90
22706;DHT22;11520;51.198;4.468;2022-09-29T17:05:08;15.70;99.90
22706;DHT22;11520;51.198;4.468;2022-09-29T17:07:39;15.70;99.90
22706;DHT22;11520;51.198;4.468;2022-09-29T17:10:19;15.50;99.90
22706;DHT22;11520;51.198;4.468;2022-09-29T17:12:46;15.40;99.90
22706;DHT22;11520;51.198;4.468;2022-09-29T17:15:15;15.30;99.90
22706;DHT22;11520;51.198;4.468;2022-09-29T17:18:02;15.30;99.90
22706;DHT22;11520;51.198;4.468;2022-09-29T17:20:28;15.10;99.90
22706;DHT22;11520;51.198;4.468;2022-09-29T17:22:54;15.00;99.90
22706;DHT22;11520;51.198;4.468;2022-09-29T17:25:21;14.90;99.90
22706;DHT22;11520;51.198;4.468;2022-09-29T17:27:49;14.90;99.90
22706;DHT22;11520;51.198;4.468;2022-09-29T17:30:35;14.80;99.90
22706;DHT22;11520;51.198;4.468;2022-09-29T17:33:00;14.70;99.90
22706;DHT22;11520;51.198;4.468;2022-09-29T17:35:30;14.60;99.90
22706;DHT22;11520;51.198;4.468;2022-09-29T17:37:58;14.50;99.90
22706;DHT22;11520;51.198;4.468;2022-09-29T17:40:35;14.50;99.90
22706;DHT22;11520;51.198;4.468;2022-09-29T17:43:02;14.50;99.90
22706;DHT22;11520;51.198;4.468;2022-09-29T17:45:29;14.50;99.90
22706;DHT22;11520;51.198;4.468;2022-09-29T17:47:55;14.60;99.90
22706;DHT22;11520;51.198;4.468;2022-09-29T17:50:28;14.70;99.90
22706;DHT22;11520;51.198;4.468;2022-09-29T17:52:56;14.60;99.90
22706;DHT22;11520;51.198;4.468;2022-09-29T17:55:23;14.60;99.90
22706;DHT22;11520;51.198;4.468;2022-09-29T17:57:49;14.80;99.90
22706;DHT22;11520;51.198;4.468;2022-09-29T18:00:31;14.80;99.90
22706;DHT22;11520;51.198;4.468;2022-09-29T18:02:57;14.80;99.90
22706;DHT22;11520;51.198;4.468;2022-09-29T18:05:26;14.80;99.90
22706;DHT22;11520;51.198;4.468;2022-09-29T18:07:53;14.80;99.90
22706;DHT22;11520;51.198;4.468;2022-09-29T18:10:46;14.70;99.90
22706;DHT22;11520;51.198;4.468;2022-09-29T18:13:13;14.70;99.90
22706;DHT22;11520;51.198;4.468;2022-09-29T18:15:40;14.60;99.90
22706;DHT22;11520;51.198;4.468;2022-09-29T18:18:10;14.60;99.90
22706;DHT22;11520;51.198;4.468;2022-09-29T18:20:36;14.60;99.90
22706;DHT22;11520;51.198;4.468;2022-09-29T18:23:04;14.50;99.90
22706;DHT22;11520;51.198;4.468;2022-09-29T18:25:31;14.40;99.90
22706;DHT22;11520;51.198;4.468;2022-09-29T18:27:58;14.30;99.90
22706;DHT22;11520;51.198;4.468;2022-09-29T18:30:29;14.30;99.90
22706;DHT22;11520;51.198;4.468;2022-09-29T18:32:57;14.30;99.90
22706;DHT22;11520;51.198;4.468;2022-09-29T18:35:26;14.30;99.90
22706;DHT22;11520;51.198;4.468;2022-09-29T18:37:52;14.30;99.90
22706;DHT22;11520;51.198;4.468;2022-09-29T18:40:18;14.30;99.90